KSGR/SGR METAR and TAF weather

Enter ICAO airport designator
Station Type Date Time Source
KSGR METAR 2019/08/20 09:00 UTC NOAA

KSGR 200900Z AUTO 22003KT 10SM FEW019 SCT024 26/26 A2998 RMK AO2 T02560256


Station Type Date Time Source
KSGR Decoded METAR 2019/08/20 09:00 UTC NOAA

SUGARLAND REGIONAL AIRPORT, TX, United States (KSGR) 29-37N 095-39W
Aug 20, 2019 - 05:00 AM EDT / 2019.08.20 0900 UTC
Wind: from the SW (220 degrees) at 3 MPH (3 KT):0
Visibility: 10 mile(s):0
Sky conditions: partly cloudy
Temperature: 78.1 F (25.6 C)
Dew Point: 78.1 F (25.6 C)
Relative Humidity: 100%
Pressure (altimeter): 29.98 in. Hg (1015 hPa)
ob: KSGR 200900Z AUTO 22003KT 10SM FEW019 SCT024 26/26 A2998 RMK AO2 T02560256
cycle: 9

Station Type Date Time Source
KSGR TAF 2019/08/20 06:30 UTC NOAA

TAF KSGR 200528Z 2006/2106 17006KT P6SM FEW025
FM201400 22005KT P6SM SCT025 SCT060
FM201600 20006KT P6SM VCSH SCT040 SCT060
FM201800 18006KT P6SM VCTS SCT045CB BKN060
FM210000 17006KT P6SM SCT045

Example: see airport list